createdAt,value
2023-03-06T00:01:29.762Z,-3.78
2023-03-06T00:03:59.180Z,-3.75
2023-03-06T00:06:34.764Z,-3.73
2023-03-06T00:09:06.008Z,-3.61
2023-03-06T00:14:10.527Z,-3.40
2023-03-06T00:16:39.700Z,-3.48
2023-03-06T00:19:08.948Z,-3.61
2023-03-06T00:21:38.066Z,-3.81
2023-03-06T00:24:09.671Z,-3.93
2023-03-06T00:26:40.768Z,-4.05
2023-03-06T00:29:10.173Z,-4.22
2023-03-06T00:31:39.710Z,-4.27
2023-03-06T00:34:09.003Z,-4.37
2023-03-06T00:36:43.266Z,-4.35
2023-03-06T00:39:14.506Z,-4.50
2023-03-06T00:41:48.741Z,-4.39
2023-03-06T00:44:17.974Z,-4.36
2023-03-06T00:46:47.122Z,-4.29
2023-03-06T00:49:22.662Z,-4.28
2023-03-06T00:51:51.781Z,-4.25
2023-03-06T00:54:23.097Z,-4.21
2023-03-06T00:56:52.573Z,-4.18
2023-03-06T00:59:21.916Z,-4.20
2023-03-06T01:01:51.247Z,-4.17
2023-03-06T01:04:20.804Z,-4.38
2023-03-06T01:09:35.681Z,-4.17
2023-03-06T01:12:05.084Z,-4.13
2023-03-06T01:14:39.166Z,-4.10
2023-03-06T01:17:09.066Z,-4.07
2023-03-06T01:19:38.683Z,-4.07
2023-03-06T01:22:07.922Z,-3.98
2023-03-06T01:24:39.193Z,-3.91
2023-03-06T01:27:08.704Z,-3.95
2023-03-06T01:29:37.890Z,-3.81
2023-03-06T01:32:08.064Z,-3.75
2023-03-06T01:34:42.287Z,-3.70
2023-03-06T01:37:11.571Z,-3.71
2023-03-06T01:39:42.652Z,-3.72
2023-03-06T01:42:17.378Z,-3.88
2023-03-06T01:45:01.054Z,-3.68
2023-03-06T01:47:32.409Z,-3.65
2023-03-06T01:50:11.776Z,-3.61
2023-03-06T01:52:46.360Z,-3.75
2023-03-06T01:55:21.366Z,-3.57
2023-03-06T01:57:55.337Z,-3.53
2023-03-06T02:00:27.093Z,-3.50
2023-03-06T02:03:00.313Z,-3.45
2023-03-06T02:05:29.620Z,-3.45
2023-03-06T02:07:59.848Z,-3.46
2023-03-06T02:10:31.205Z,-3.45
2023-03-06T02:13:01.568Z,-3.46
2023-03-06T02:15:37.424Z,-3.53
2023-03-06T02:18:11.763Z,-3.53
2023-03-06T02:20:55.597Z,-3.53
2023-03-06T02:23:33.913Z,-3.45
2023-03-06T02:26:06.138Z,-3.41
2023-03-06T02:28:35.950Z,-3.65
2023-03-06T02:31:05.450Z,-3.64
2023-03-06T02:33:35.830Z,-3.72
2023-03-06T02:36:08.614Z,-3.79
2023-03-06T02:38:42.720Z,-3.79
2023-03-06T02:41:13.775Z,-3.86
2023-03-06T02:43:50.781Z,-3.89
2023-03-06T02:46:20.340Z,-3.94
2023-03-06T02:48:49.552Z,-3.92
2023-03-06T02:53:53.551Z,-3.88
2023-03-06T02:56:26.034Z,-4.05
2023-03-06T02:59:00.492Z,-3.92
2023-03-06T03:01:30.348Z,-3.91
2023-03-06T03:03:59.483Z,-4.01
2023-03-06T03:06:29.491Z,-3.89
2023-03-06T03:08:59.478Z,-3.89
2023-03-06T03:11:30.873Z,-3.83
2023-03-06T03:14:05.244Z,-3.76
2023-03-06T03:16:39.921Z,-3.76
2023-03-06T03:19:09.283Z,-3.74
2023-03-06T03:21:38.720Z,-4.03
2023-03-06T03:24:08.973Z,-3.70
2023-03-06T03:26:40.288Z,-3.74
2023-03-06T03:29:14.825Z,-3.70
2023-03-06T03:31:44.289Z,-3.61
2023-03-06T03:34:13.714Z,-3.55
2023-03-06T03:36:45.037Z,-3.48
2023-03-06T03:39:15.611Z,-3.44
2023-03-06T03:41:58.231Z,-3.41
2023-03-06T03:44:27.760Z,-3.42
2023-03-06T03:46:57.870Z,-3.36
2023-03-06T03:49:32.572Z,-3.49
2023-03-06T03:52:03.183Z,-3.50
2023-03-06T03:54:36.053Z,-3.27
2023-03-06T03:57:12.297Z,-3.23
2023-03-06T03:59:52.384Z,-3.25
2023-03-06T04:02:28.650Z,-3.30
2023-03-06T04:05:12.892Z,-3.44
2023-03-06T04:07:45.881Z,-3.28
2023-03-06T04:10:15.550Z,-3.37
2023-03-06T04:12:47.236Z,-3.51
2023-03-06T04:15:16.620Z,-3.54
2023-03-06T04:17:47.483Z,-3.59
2023-03-06T04:20:20.721Z,-3.55
2023-03-06T04:22:50.784Z,-3.62
2023-03-06T04:25:20.432Z,-3.39
2023-03-06T04:27:51.708Z,-3.29
2023-03-06T04:30:21.284Z,-3.25
2023-03-06T04:32:51.623Z,-3.40
2023-03-06T04:35:21.119Z,-3.23
2023-03-06T04:38:02.545Z,-3.20
2023-03-06T04:40:35.696Z,-3.13
2023-03-06T04:43:07.811Z,-3.21
2023-03-06T04:45:36.804Z,-3.04
2023-03-06T04:48:06.433Z,-3.13
2023-03-06T04:50:37.628Z,-3.12
2023-03-06T04:53:08.265Z,-3.10
2023-03-06T04:55:37.969Z,-3.03
2023-03-06T04:58:09.036Z,-3.28
2023-03-06T05:00:38.436Z,-3.00
2023-03-06T05:03:12.869Z,-3.03
2023-03-06T05:08:18.976Z,-2.71
2023-03-06T05:10:48.313Z,-2.66
2023-03-06T05:13:19.382Z,-2.58
2023-03-06T05:15:49.298Z,-2.53
2023-03-06T05:18:18.614Z,-2.71
2023-03-06T05:23:40.868Z,-2.35
2023-03-06T05:26:10.929Z,-2.41
2023-03-06T05:28:42.743Z,-2.53
2023-03-06T05:31:16.841Z,-2.57
2023-03-06T05:33:46.344Z,-2.54
2023-03-06T05:36:15.542Z,-2.47
2023-03-06T05:38:49.937Z,-2.44
2023-03-06T05:41:19.243Z,-2.45
2023-03-06T05:46:25.372Z,-2.49
2023-03-06T05:48:57.080Z,-2.43
2023-03-06T05:51:31.554Z,-2.29
2023-03-06T05:54:00.770Z,-2.20
2023-03-06T05:56:30.133Z,-1.97
2023-03-06T05:59:01.574Z,-1.93
2023-03-06T06:01:35.939Z,-1.87
2023-03-06T06:04:05.472Z,-1.80
2023-03-06T06:06:34.628Z,-1.75
2023-03-06T06:09:03.900Z,-1.60
2023-03-06T06:11:33.298Z,-1.52
2023-03-06T06:14:11.487Z,-1.44
2023-03-06T06:16:45.710Z,-1.23
2023-03-06T06:19:18.356Z,-0.94
2023-03-06T06:21:49.474Z,-0.87
2023-03-06T06:24:21.906Z,-0.81
2023-03-06T06:27:04.107Z,-0.85
2023-03-06T06:29:35.555Z,-0.94
2023-03-06T06:32:05.062Z,-1.07
2023-03-06T06:34:34.415Z,-1.21
2023-03-06T06:37:03.611Z,-1.21
2023-03-06T06:39:33.920Z,-1.34
2023-03-06T06:42:28.290Z,-1.09
2023-03-06T06:44:59.423Z,-1.09
2023-03-06T06:47:28.558Z,-1.16
2023-03-06T06:49:58.451Z,-1.15
2023-03-06T06:52:28.025Z,-1.02
2023-03-06T06:54:57.333Z,-0.91
2023-03-06T06:57:32.777Z,-0.78
2023-03-06T07:00:03.913Z,-0.61
2023-03-06T07:02:35.248Z,-0.53
2023-03-06T07:05:05.668Z,-0.25
2023-03-06T07:07:36.965Z,0.09
2023-03-06T07:10:07.796Z,-0.02
2023-03-06T07:12:37.049Z,0.13
2023-03-06T07:15:09.649Z,0.34
2023-03-06T07:17:38.892Z,0.74
2023-03-06T07:20:08.675Z,0.84
2023-03-06T07:22:50.254Z,1.10
2023-03-06T07:25:25.441Z,1.37
2023-03-06T07:27:55.159Z,1.60
2023-03-06T07:30:26.608Z,1.94
2023-03-06T07:32:57.238Z,1.95
2023-03-06T07:35:32.589Z,1.59
2023-03-06T07:38:01.890Z,1.77
2023-03-06T07:40:31.211Z,1.61
2023-03-06T07:43:16.823Z,1.78
2023-03-06T07:45:58.018Z,2.04
2023-03-06T07:48:27.820Z,2.18
2023-03-06T07:50:58.404Z,2.15
2023-03-06T07:53:27.752Z,1.85
2023-03-06T07:56:02.502Z,1.87
2023-03-06T07:58:31.763Z,1.92
2023-03-06T08:01:05.984Z,1.87
2023-03-06T08:03:35.637Z,1.83
2023-03-06T08:06:09.620Z,1.55
2023-03-06T08:08:39.838Z,1.36
2023-03-06T08:11:20.902Z,1.31
2023-03-06T08:13:52.144Z,1.17
2023-03-06T08:16:25.347Z,1.25
2023-03-06T08:18:54.926Z,1.03
2023-03-06T08:21:25.554Z,0.64
2023-03-06T08:24:00.621Z,0.68
2023-03-06T08:26:33.402Z,0.49
2023-03-06T08:29:03.943Z,0.60
2023-03-06T08:31:36.590Z,0.68
2023-03-06T08:34:08.544Z,0.55
2023-03-06T08:36:37.731Z,0.82
2023-03-06T08:39:07.815Z,0.74
2023-03-06T08:41:37.566Z,0.41
2023-03-06T08:44:07.495Z,0.30
2023-03-06T08:46:39.877Z,0.28
2023-03-06T08:49:09.244Z,0.16
2023-03-06T08:51:40.359Z,0.21
2023-03-06T08:54:11.238Z,0.42
2023-03-06T08:56:40.482Z,0.42
2023-03-06T08:59:10.583Z,0.45
2023-03-06T09:01:42.774Z,0.57
2023-03-06T09:04:13.579Z,0.89
2023-03-06T09:06:45.141Z,1.16
2023-03-06T09:09:15.326Z,1.30
2023-03-06T09:11:50.799Z,1.48
2023-03-06T09:14:19.894Z,1.39
2023-03-06T09:16:51.048Z,1.56
2023-03-06T09:19:20.421Z,1.79
2023-03-06T09:21:49.958Z,1.99
2023-03-06T09:24:19.658Z,1.93
2023-03-06T09:26:50.499Z,1.98
2023-03-06T09:29:20.876Z,1.89
2023-03-06T09:31:52.298Z,1.55
2023-03-06T09:34:21.773Z,1.40
2023-03-06T09:36:56.787Z,1.56
2023-03-06T09:39:27.624Z,1.38
2023-03-06T09:42:01.886Z,1.55
2023-03-06T09:44:33.967Z,1.54
2023-03-06T09:47:13.066Z,1.59
2023-03-06T09:52:46.702Z,0.84
2023-03-06T09:55:24.668Z,0.73
2023-03-06T09:58:00.572Z,0.83
2023-03-06T10:00:36.147Z,0.96
2023-03-06T10:03:21.487Z,1.13
2023-03-06T10:05:55.312Z,0.99
2023-03-06T10:08:31.606Z,0.97
2023-03-06T10:11:03.274Z,0.97
2023-03-06T10:13:40.154Z,1.04
2023-03-06T10:16:23.507Z,0.80
2023-03-06T10:19:04.160Z,0.54
2023-03-06T10:21:45.228Z,0.50
2023-03-06T10:24:26.202Z,0.49
2023-03-06T10:27:02.573Z,0.67
2023-03-06T10:30:01.277Z,0.80
2023-03-06T10:32:50.122Z,1.07
2023-03-06T10:35:30.369Z,1.34
2023-03-06T10:38:14.235Z,1.28
2023-03-06T10:40:52.985Z,1.83
2023-03-06T10:43:24.705Z,1.98
2023-03-06T10:45:55.731Z,2.13
2023-03-06T10:48:27.081Z,2.20
2023-03-06T10:51:18.141Z,2.21
2023-03-06T10:53:54.856Z,2.22
2023-03-06T10:56:32.386Z,2.33
2023-03-06T10:59:08.732Z,2.45
2023-03-06T11:01:38.749Z,2.24
2023-03-06T11:04:23.790Z,2.14
2023-03-06T11:07:15.309Z,2.02
2023-03-06T11:09:47.398Z,1.90
2023-03-06T11:12:24.762Z,2.09
2023-03-06T11:15:12.442Z,2.35
2023-03-06T11:17:52.540Z,2.64
2023-03-06T11:20:24.634Z,2.54
2023-03-06T11:22:59.637Z,2.31
2023-03-06T11:25:39.795Z,2.00
2023-03-06T11:28:17.820Z,1.83
2023-03-06T11:30:56.421Z,1.69
2023-03-06T11:33:32.562Z,1.29
2023-03-06T11:36:15.854Z,1.26
2023-03-06T11:38:51.668Z,1.06
2023-03-06T11:41:37.925Z,0.85
2023-03-06T11:44:20.622Z,0.55
2023-03-06T11:47:07.683Z,0.45
2023-03-06T11:49:43.813Z,0.01
2023-03-06T11:52:26.587Z,0.30
2023-03-06T11:55:00.311Z,0.45
2023-03-06T11:57:41.276Z,0.69
2023-03-06T12:00:21.496Z,0.84
2023-03-06T12:03:21.745Z,0.98
2023-03-06T12:05:58.691Z,0.59
2023-03-06T12:08:39.256Z,0.47
2023-03-06T12:11:24.729Z,0.54
2023-03-06T12:14:08.844Z,0.72
2023-03-06T12:16:54.459Z,0.86
2023-03-06T12:19:43.421Z,1.13
2023-03-06T12:22:29.129Z,1.37
2023-03-06T12:28:14.455Z,1.15
2023-03-06T12:31:07.919Z,1.11
2023-03-06T12:33:46.725Z,0.93
2023-03-06T12:36:35.468Z,0.69
2023-03-06T12:39:12.488Z,0.56
2023-03-06T12:41:53.325Z,0.69
2023-03-06T12:44:50.821Z,0.77
2023-03-06T12:53:09.974Z,0.10
2023-03-06T12:55:43.268Z,-0.06
2023-03-06T12:58:52.985Z,-0.33
2023-03-06T13:01:51.676Z,-0.82
2023-03-06T13:04:46.605Z,-1.29
2023-03-06T13:07:45.300Z,-1.61
2023-03-06T13:10:26.226Z,-1.55
2023-03-06T13:13:06.988Z,-1.39
2023-03-06T13:15:45.427Z,-1.32
2023-03-06T13:18:55.793Z,-1.30
2023-03-06T13:22:03.885Z,-1.45
2023-03-06T13:24:38.347Z,-1.51
2023-03-06T13:27:13.182Z,-1.46
2023-03-06T13:30:05.053Z,-1.61
2023-03-06T13:32:42.343Z,-1.78
2023-03-06T13:35:53.244Z,-1.76
2023-03-06T13:38:55.470Z,-1.66
2023-03-06T13:41:46.443Z,-1.56
2023-03-06T13:44:48.429Z,-1.56
2023-03-06T13:48:02.870Z,-1.54
2023-03-06T13:50:46.961Z,-1.49
2023-03-06T13:53:44.052Z,-1.32
2023-03-06T13:56:59.258Z,-1.14
2023-03-06T14:00:08.113Z,-0.72
2023-03-06T14:03:05.869Z,-0.43
2023-03-06T14:05:43.955Z,-0.61
2023-03-06T14:08:16.864Z,-0.95
2023-03-06T14:10:48.204Z,-1.16
2023-03-06T14:13:30.036Z,-1.46
2023-03-06T14:16:04.322Z,-1.79
2023-03-06T14:18:39.942Z,-1.83
2023-03-06T14:21:14.052Z,-1.91
2023-03-06T14:23:53.420Z,-2.03
2023-03-06T14:26:25.137Z,-2.17
2023-03-06T14:28:58.219Z,-2.24
2023-03-06T14:31:31.141Z,-2.37
2023-03-06T14:34:04.639Z,-2.44
2023-03-06T14:36:38.392Z,-2.42
2023-03-06T14:39:14.464Z,-2.22
2023-03-06T14:41:43.980Z,-2.17
2023-03-06T14:44:24.110Z,-2.07
2023-03-06T14:47:13.049Z,-2.16
2023-03-06T14:49:44.346Z,-2.16
2023-03-06T14:52:21.246Z,-2.12
2023-03-06T14:54:51.859Z,-2.03
2023-03-06T14:57:24.505Z,-2.06
2023-03-06T14:59:58.385Z,-1.96
2023-03-06T15:02:32.470Z,-1.92
2023-03-06T15:05:08.098Z,-1.87
2023-03-06T15:07:37.399Z,-1.92
2023-03-06T15:10:10.120Z,-1.96
2023-03-06T15:15:32.269Z,-2.12
2023-03-06T15:18:04.597Z,-2.31
2023-03-06T15:20:55.547Z,-2.31
2023-03-06T15:23:27.791Z,-2.41
2023-03-06T15:25:59.428Z,-2.49
2023-03-06T15:28:38.220Z,-2.32
2023-03-06T15:31:20.872Z,-2.28
2023-03-06T15:34:15.061Z,-2.34
2023-03-06T15:36:48.581Z,-2.50
2023-03-06T15:39:40.029Z,-2.52
2023-03-06T15:45:17.625Z,-2.87
2023-03-06T15:47:54.087Z,-3.21
2023-03-06T15:50:25.917Z,-3.11
2023-03-06T15:52:57.149Z,-3.27
2023-03-06T15:55:27.770Z,-3.29
2023-03-06T15:57:59.279Z,-3.12
2023-03-06T16:00:30.520Z,-3.09
2023-03-06T16:03:00.594Z,-3.13
2023-03-06T16:05:31.184Z,-3.22
2023-03-06T16:08:03.279Z,-3.26
2023-03-06T16:10:35.516Z,-3.27
2023-03-06T16:13:09.147Z,-3.31
2023-03-06T16:15:48.900Z,-3.40
2023-03-06T16:18:18.592Z,-3.45
2023-03-06T16:20:47.872Z,-3.46
2023-03-06T16:23:19.057Z,-3.35
2023-03-06T16:25:50.979Z,-3.42
2023-03-06T16:28:19.963Z,-3.26
2023-03-06T16:30:49.116Z,-3.42
2023-03-06T16:33:28.953Z,-3.31
2023-03-06T16:35:58.338Z,-3.27
2023-03-06T16:38:29.663Z,-3.12
2023-03-06T16:40:59.210Z,-3.07
2023-03-06T16:43:29.382Z,-3.24
2023-03-06T16:45:59.748Z,-3.39
2023-03-06T16:48:28.904Z,-3.43
2023-03-06T16:50:58.158Z,-3.59
2023-03-06T16:53:29.438Z,-3.47
2023-03-06T16:55:58.645Z,-3.51
2023-03-06T16:58:31.679Z,-3.48
2023-03-06T17:01:01.751Z,-3.51
2023-03-06T17:03:31.014Z,-3.56
2023-03-06T17:06:00.335Z,-3.66
2023-03-06T17:08:31.946Z,-3.65
2023-03-06T17:11:01.331Z,-3.73
2023-03-06T17:13:30.511Z,-3.93
2023-03-06T17:16:01.516Z,-3.91
2023-03-06T17:18:36.537Z,-3.87
2023-03-06T17:21:06.213Z,-4.02
2023-03-06T17:23:37.456Z,-4.00
2023-03-06T17:26:08.775Z,-4.08
2023-03-06T17:28:41.180Z,-4.18
2023-03-06T17:31:18.294Z,-4.05
2023-03-06T17:33:48.454Z,-4.08
2023-03-06T17:36:18.842Z,-4.08
2023-03-06T17:38:50.316Z,-4.04
2023-03-06T17:41:19.537Z,-4.06
2023-03-06T17:43:48.759Z,-4.40
2023-03-06T17:46:18.084Z,-3.96
2023-03-06T17:48:49.008Z,-4.00
2023-03-06T17:51:23.330Z,-3.90
2023-03-06T17:53:55.248Z,-3.84
2023-03-06T17:56:29.812Z,-3.74
2023-03-06T17:58:59.380Z,-3.61
2023-03-06T18:01:30.043Z,-3.51
2023-03-06T18:04:01.805Z,-3.68
2023-03-06T18:06:33.091Z,-3.64
2023-03-06T18:09:04.617Z,-3.71
2023-03-06T18:11:35.038Z,-3.77
2023-03-06T18:14:05.674Z,-3.87
2023-03-06T18:16:35.198Z,-3.83
2023-03-06T18:19:12.088Z,-3.96
2023-03-06T18:21:41.987Z,-4.00
2023-03-06T18:24:13.212Z,-4.10
2023-03-06T18:26:44.073Z,-4.12
2023-03-06T18:29:13.838Z,-4.17
2023-03-06T18:31:45.688Z,-4.13
2023-03-06T18:34:18.478Z,-4.04
2023-03-06T18:36:51.208Z,-4.04
2023-03-06T18:39:22.978Z,-3.81
2023-03-06T18:41:53.053Z,-3.77
2023-03-06T18:44:34.048Z,-3.73
2023-03-06T18:47:03.416Z,-3.79
2023-03-06T18:49:32.604Z,-3.88
2023-03-06T18:52:02.120Z,-4.03
2023-03-06T18:54:34.243Z,-4.18
2023-03-06T18:59:38.317Z,-4.30
2023-03-06T19:02:07.463Z,-4.30
2023-03-06T19:04:43.007Z,-4.44
2023-03-06T19:07:14.323Z,-4.37
2023-03-06T19:09:46.154Z,-4.42
2023-03-06T19:12:20.453Z,-4.42
2023-03-06T19:14:50.003Z,-4.50
2023-03-06T19:17:19.178Z,-4.42
2023-03-06T19:19:56.561Z,-4.51
2023-03-06T19:22:25.827Z,-4.52
2023-03-06T19:25:03.799Z,-4.58
2023-03-06T19:27:34.323Z,-4.57
2023-03-06T19:30:11.114Z,-4.70
2023-03-06T19:32:40.440Z,-4.65
2023-03-06T19:35:10.629Z,-4.68
2023-03-06T19:37:46.311Z,-4.72
2023-03-06T19:40:17.716Z,-4.74
2023-03-06T19:42:47.133Z,-4.76
2023-03-06T19:45:16.220Z,-4.76
2023-03-06T19:47:53.355Z,-4.77
2023-03-06T19:50:23.569Z,-4.80
2023-03-06T19:52:53.253Z,-4.82
2023-03-06T19:55:28.175Z,-4.85
2023-03-06T19:57:57.543Z,-4.95
2023-03-06T20:00:27.163Z,-4.82
2023-03-06T20:03:01.581Z,-4.74
2023-03-06T20:05:30.917Z,-4.69
2023-03-06T20:08:00.167Z,-4.61
2023-03-06T20:10:38.893Z,-4.79
2023-03-06T20:13:08.298Z,-4.67
2023-03-06T20:15:37.385Z,-4.65
2023-03-06T20:18:08.072Z,-4.57
2023-03-06T20:20:39.539Z,-4.51
2023-03-06T20:23:08.879Z,-4.39
2023-03-06T20:25:40.344Z,-4.30
2023-03-06T20:28:14.817Z,-4.30
2023-03-06T20:30:43.961Z,-4.23
2023-03-06T20:33:14.976Z,-4.30
2023-03-06T20:35:44.805Z,-4.31
2023-03-06T20:38:14.029Z,-4.10
2023-03-06T20:40:45.705Z,-4.16
2023-03-06T20:43:15.600Z,-4.05
2023-03-06T20:45:44.786Z,-3.97
2023-03-06T20:48:14.094Z,-3.99
2023-03-06T20:50:43.271Z,-3.93
2023-03-06T20:53:12.506Z,-3.93
2023-03-06T20:55:47.935Z,-3.96
2023-03-06T20:58:21.183Z,-3.89
2023-03-06T21:00:50.439Z,-3.93
2023-03-06T21:03:19.656Z,-3.94
2023-03-06T21:05:49.081Z,-3.86
2023-03-06T21:08:19.176Z,-3.84
2023-03-06T21:10:48.514Z,-3.86
2023-03-06T21:13:19.745Z,-3.87
2023-03-06T21:15:49.027Z,-3.85
2023-03-06T21:18:18.265Z,-3.80
2023-03-06T21:20:47.698Z,-3.77
2023-03-06T21:23:18.630Z,-3.82
2023-03-06T21:25:51.683Z,-3.76
2023-03-06T21:28:23.037Z,-3.75
2023-03-06T21:30:57.322Z,-3.74
2023-03-06T21:33:26.612Z,-3.75
2023-03-06T21:35:55.849Z,-3.72
2023-03-06T21:38:25.171Z,-3.90
2023-03-06T21:40:55.583Z,-3.70
2023-03-06T21:43:26.964Z,-3.81
2023-03-06T21:45:58.890Z,-3.59
2023-03-06T21:48:28.178Z,-3.61
2023-03-06T21:51:05.755Z,-3.58
2023-03-06T21:53:45.028Z,-3.65
2023-03-06T21:56:15.301Z,-3.67
2023-03-06T21:58:53.144Z,-3.78
2023-03-06T22:01:25.224Z,-3.70
2023-03-06T22:03:54.490Z,-3.73
2023-03-06T22:06:26.216Z,-3.74
2023-03-06T22:08:57.981Z,-3.76
2023-03-06T22:11:27.779Z,-3.74
2023-03-06T22:13:59.755Z,-3.93
2023-03-06T22:16:29.525Z,-3.95
2023-03-06T22:18:58.635Z,-3.98
2023-03-06T22:21:33.316Z,-3.97
2023-03-06T22:24:02.749Z,-4.03
2023-03-06T22:26:32.202Z,-3.94
2023-03-06T22:29:08.812Z,-3.93
2023-03-06T22:31:40.230Z,-3.92
2023-03-06T22:34:09.776Z,-3.87
2023-03-06T22:36:38.844Z,-3.90
2023-03-06T22:39:08.013Z,-3.87
2023-03-06T22:41:43.534Z,-3.81
2023-03-06T22:44:18.862Z,-3.81
2023-03-06T22:46:48.401Z,-3.81
2023-03-06T22:49:18.409Z,-3.81
2023-03-06T22:51:47.573Z,-3.85
2023-03-06T22:54:16.689Z,-3.81
2023-03-06T22:56:45.830Z,-3.82
2023-03-06T22:59:17.138Z,-3.90
2023-03-06T23:01:46.432Z,-3.77
2023-03-06T23:04:15.728Z,-3.76
2023-03-06T23:06:46.578Z,-3.86
2023-03-06T23:09:20.093Z,-3.75
2023-03-06T23:11:55.916Z,-3.74
2023-03-06T23:14:49.106Z,-3.74
2023-03-06T23:17:36.777Z,-3.76
2023-03-06T23:20:24.864Z,-3.79
2023-03-06T23:23:18.238Z,-3.87
2023-03-06T23:25:48.494Z,-3.99
2023-03-06T23:28:23.058Z,-4.03
2023-03-06T23:30:54.635Z,-4.38
2023-03-06T23:33:23.896Z,-4.15
2023-03-06T23:35:58.038Z,-4.15
2023-03-06T23:38:27.329Z,-4.14
2023-03-06T23:40:56.486Z,-4.11
2023-03-06T23:43:26.117Z,-4.16
2023-03-06T23:46:02.749Z,-4.12
2023-03-06T23:48:32.410Z,-4.11
2023-03-06T23:51:01.910Z,-4.11
2023-03-06T23:53:31.146Z,-4.12
2023-03-06T23:56:01.594Z,-4.04
2023-03-06T23:58:30.827Z,-4.01
